createdAt,value
2018-12-22T00:02:00.230Z,7.20
2018-12-22T00:04:27.605Z,7.20
2018-12-22T00:06:54.978Z,7.20
2018-12-22T00:09:22.387Z,7.20
2018-12-22T00:11:49.816Z,7.20
2018-12-22T00:14:17.205Z,7.30
2018-12-22T00:16:44.709Z,7.30
2018-12-22T00:19:12.133Z,7.30
2018-12-22T00:21:39.516Z,7.30
2018-12-22T00:24:06.933Z,7.30
2018-12-22T00:26:34.320Z,7.30
2018-12-22T00:29:01.848Z,7.30
2018-12-22T00:31:29.261Z,7.30
2018-12-22T00:33:56.957Z,7.30
2018-12-22T00:36:24.400Z,7.30
2018-12-22T00:38:51.945Z,7.30
2018-12-22T00:41:19.389Z,7.30
2018-12-22T00:43:46.797Z,7.30
2018-12-22T00:46:14.422Z,7.30
2018-12-22T00:48:41.824Z,7.30
2018-12-22T00:51:09.250Z,7.30
2018-12-22T00:53:36.860Z,7.30
2018-12-22T00:56:04.295Z,7.30
2018-12-22T00:58:31.692Z,7.20
2018-12-22T01:00:59.102Z,7.50
2018-12-22T01:03:26.597Z,7.50
2018-12-22T01:05:53.956Z,7.50
2018-12-22T01:08:21.325Z,7.40
2018-12-22T01:10:48.716Z,7.40
2018-12-22T01:13:16.096Z,7.40
2018-12-22T01:15:43.697Z,7.40
2018-12-22T01:18:11.077Z,7.40
2018-12-22T01:20:38.709Z,7.40
2018-12-22T01:23:06.128Z,7.40
2018-12-22T01:25:33.761Z,7.40
2018-12-22T01:28:01.130Z,7.40
2018-12-22T01:30:28.777Z,7.40
2018-12-22T01:32:56.168Z,7.30
2018-12-22T01:35:23.678Z,7.30
2018-12-22T01:37:51.065Z,7.30
2018-12-22T01:40:18.484Z,7.30
2018-12-22T01:42:46.064Z,7.30
2018-12-22T01:45:13.444Z,7.30
2018-12-22T01:47:41.208Z,7.30
2018-12-22T01:50:08.842Z,7.30
2018-12-22T01:52:36.332Z,7.40
2018-12-22T01:55:04.396Z,7.40
2018-12-22T01:57:31.773Z,7.40
2018-12-22T01:59:59.156Z,7.50
2018-12-22T02:02:26.580Z,7.50
2018-12-22T02:04:54.260Z,7.50
2018-12-22T02:07:21.772Z,7.60
2018-12-22T02:09:49.177Z,7.60
2018-12-22T02:12:16.631Z,7.50
2018-12-22T02:14:44.229Z,7.50
2018-12-22T02:17:11.613Z,7.50
2018-12-22T02:19:39.454Z,7.50
2018-12-22T02:22:06.869Z,7.40
2018-12-22T02:24:34.293Z,7.40
2018-12-22T02:27:01.676Z,7.40
2018-12-22T02:29:29.061Z,7.40
2018-12-22T02:31:56.553Z,7.40
2018-12-22T02:34:23.945Z,7.30
2018-12-22T02:36:51.384Z,7.40
2018-12-22T02:39:18.788Z,7.40
2018-12-22T02:41:46.160Z,7.40
2018-12-22T02:44:13.665Z,7.40
2018-12-22T02:46:41.089Z,7.50
2018-12-22T02:49:08.620Z,7.50
2018-12-22T02:51:36.114Z,7.60
2018-12-22T02:54:03.811Z,7.70
2018-12-22T02:56:31.302Z,7.70
2018-12-22T02:59:05.958Z,7.80
2018-12-22T03:01:28.206Z,7.80
2018-12-22T03:03:55.585Z,7.80
2018-12-22T03:06:23.257Z,7.90
2018-12-22T03:08:50.658Z,7.90
2018-12-22T03:11:18.054Z,7.90
2018-12-22T03:13:45.500Z,7.90
2018-12-22T03:16:13.040Z,7.90
2018-12-22T03:18:40.456Z,8.00
2018-12-22T03:21:07.956Z,8.00
2018-12-22T03:23:35.577Z,8.00
2018-12-22T03:26:02.972Z,8.00
2018-12-22T03:28:30.366Z,8.10
2018-12-22T03:30:57.947Z,8.10
2018-12-22T03:33:25.453Z,8.20
2018-12-22T03:35:52.840Z,8.20
2018-12-22T03:38:20.245Z,8.20
2018-12-22T03:40:47.683Z,8.30
2018-12-22T03:43:15.114Z,8.30
2018-12-22T03:45:42.513Z,8.40
2018-12-22T03:48:09.914Z,8.40
2018-12-22T03:50:37.734Z,8.50
2018-12-22T03:53:05.262Z,8.30
2018-12-22T03:55:33.172Z,8.40
2018-12-22T03:58:00.613Z,8.40
2018-12-22T04:00:28.001Z,8.40
2018-12-22T04:02:55.350Z,8.40
2018-12-22T04:05:23.160Z,8.40
2018-12-22T04:07:50.585Z,8.40
2018-12-22T04:10:17.997Z,8.50
2018-12-22T04:12:45.500Z,8.40
2018-12-22T04:15:12.929Z,8.40
2018-12-22T04:17:40.513Z,8.40
2018-12-22T04:20:08.044Z,8.40
2018-12-22T04:22:35.512Z,8.50
2018-12-22T04:25:03.344Z,8.50
2018-12-22T04:27:30.780Z,8.50
2018-12-22T04:29:58.157Z,8.50
2018-12-22T04:32:25.633Z,8.50
2018-12-22T04:34:53.008Z,8.60
2018-12-22T04:37:20.742Z,8.60
2018-12-22T04:39:48.187Z,8.60
2018-12-22T04:42:15.613Z,8.60
2018-12-22T04:44:43.021Z,8.60
2018-12-22T04:47:10.693Z,8.30
2018-12-22T04:49:38.145Z,8.70
2018-12-22T04:52:05.536Z,8.70
2018-12-22T04:54:32.922Z,8.70
2018-12-22T04:57:00.340Z,8.80
2018-12-22T04:59:27.722Z,8.80
2018-12-22T05:01:55.212Z,8.80
2018-12-22T05:04:22.608Z,8.80
2018-12-22T05:06:49.994Z,8.80
2018-12-22T05:09:17.399Z,8.80
2018-12-22T05:11:46.012Z,8.90
2018-12-22T05:14:13.545Z,8.90
2018-12-22T05:16:40.996Z,8.90
2018-12-22T05:19:08.708Z,8.90
2018-12-22T05:21:36.323Z,8.90
2018-12-22T05:24:03.876Z,9.10
2018-12-22T05:26:31.273Z,8.90
2018-12-22T05:28:58.676Z,8.90
2018-12-22T05:31:26.105Z,8.90
2018-12-22T05:33:53.484Z,8.70
2018-12-22T05:36:20.873Z,8.90
2018-12-22T05:38:48.253Z,8.80
2018-12-22T05:41:15.693Z,8.80
2018-12-22T05:43:43.082Z,8.90
2018-12-22T05:46:10.508Z,8.80
2018-12-22T05:48:37.952Z,8.80
2018-12-22T05:51:05.352Z,8.80
2018-12-22T05:53:32.749Z,8.80
2018-12-22T05:56:00.209Z,8.70
2018-12-22T05:58:27.590Z,8.70
2018-12-22T06:00:54.992Z,8.70
2018-12-22T06:03:22.407Z,8.80
2018-12-22T06:05:49.797Z,8.80
2018-12-22T06:08:17.197Z,8.80
2018-12-22T06:10:44.629Z,8.80
2018-12-22T06:13:12.013Z,8.90
2018-12-22T06:15:39.444Z,8.90
2018-12-22T06:18:06.928Z,9.00
2018-12-22T06:20:34.486Z,9.00
2018-12-22T06:23:01.897Z,9.00
2018-12-22T06:25:29.325Z,9.00
2018-12-22T06:27:56.707Z,9.00
2018-12-22T06:30:24.127Z,9.00
2018-12-22T06:32:51.529Z,9.00
2018-12-22T06:35:18.954Z,9.10
2018-12-22T06:37:46.637Z,9.10
2018-12-22T06:40:14.065Z,9.10
2018-12-22T06:42:41.439Z,9.10
2018-12-22T06:45:09.217Z,9.10
2018-12-22T06:47:36.659Z,9.10
2018-12-22T06:50:04.341Z,9.10
2018-12-22T06:52:31.783Z,9.10
2018-12-22T06:54:59.184Z,9.20
2018-12-22T06:57:26.594Z,9.00
2018-12-22T06:59:54.249Z,9.10
2018-12-22T07:02:21.932Z,9.10
2018-12-22T07:04:49.337Z,9.10
2018-12-22T07:07:16.987Z,9.10
2018-12-22T07:09:44.409Z,9.10
2018-12-22T07:12:11.890Z,9.20
2018-12-22T07:14:39.477Z,9.20
2018-12-22T07:17:06.886Z,8.90
2018-12-22T07:19:34.271Z,9.20
2018-12-22T07:22:01.832Z,9.30
2018-12-22T07:24:29.237Z,9.30
2018-12-22T07:26:56.633Z,9.30
2018-12-22T07:29:24.060Z,9.30
2018-12-22T07:31:51.705Z,9.30
2018-12-22T07:34:19.093Z,9.30
2018-12-22T07:36:46.477Z,9.30
2018-12-22T07:39:13.897Z,9.40
2018-12-22T07:41:41.317Z,9.40
2018-12-22T07:44:08.733Z,9.40
2018-12-22T07:46:36.146Z,9.40
2018-12-22T07:49:04.016Z,9.50
2018-12-22T07:51:31.397Z,9.50
2018-12-22T07:53:58.785Z,9.60
2018-12-22T07:56:26.401Z,9.60
2018-12-22T07:58:53.808Z,9.60
2018-12-22T08:01:21.420Z,9.60
2018-12-22T08:03:49.209Z,9.60
2018-12-22T08:06:16.612Z,9.60
2018-12-22T08:08:44.021Z,9.70
2018-12-22T08:11:11.681Z,9.70
2018-12-22T08:13:39.093Z,9.70
2018-12-22T08:16:06.569Z,9.70
2018-12-22T08:18:33.991Z,9.70
2018-12-22T08:21:01.408Z,9.70
2018-12-22T08:23:28.977Z,9.70
2018-12-22T08:25:56.386Z,9.70
2018-12-22T08:28:23.834Z,9.80
2018-12-22T08:30:51.284Z,9.80
2018-12-22T08:33:18.670Z,9.80
2018-12-22T08:35:46.221Z,9.80
2018-12-22T08:38:13.829Z,9.90
2018-12-22T08:40:41.221Z,9.90
2018-12-22T08:43:08.624Z,9.90
2018-12-22T08:45:36.013Z,9.90
2018-12-22T08:48:03.554Z,9.90
2018-12-22T08:50:30.949Z,9.90
2018-12-22T08:52:58.442Z,9.90
2018-12-22T08:55:25.897Z,9.90
2018-12-22T08:57:53.333Z,9.90
2018-12-22T09:00:21.944Z,9.90
2018-12-22T09:02:49.361Z,10.00
2018-12-22T09:05:16.750Z,10.00
2018-12-22T09:07:44.417Z,10.00
2018-12-22T09:10:11.920Z,10.10
2018-12-22T09:12:39.337Z,10.10
2018-12-22T09:15:08.112Z,10.10
2018-12-22T09:17:35.514Z,10.20
2018-12-22T09:20:03.461Z,10.20
2018-12-22T09:22:30.889Z,10.10
2018-12-22T09:24:58.336Z,10.10
2018-12-22T09:27:25.762Z,10.10
2018-12-22T09:29:53.142Z,10.00
2018-12-22T09:32:20.893Z,10.00
2018-12-22T09:34:48.414Z,10.00
2018-12-22T09:37:15.843Z,10.00
2018-12-22T09:39:43.283Z,10.00
2018-12-22T09:42:10.701Z,10.00
2018-12-22T09:44:38.331Z,10.00
2018-12-22T09:47:05.832Z,10.00
2018-12-22T09:49:33.257Z,10.00
2018-12-22T09:52:00.643Z,10.00
2018-12-22T09:54:28.034Z,10.10
2018-12-22T09:56:55.441Z,10.00
2018-12-22T09:59:22.858Z,10.10
2018-12-22T10:01:50.269Z,10.10
2018-12-22T10:04:17.657Z,10.00
2018-12-22T10:06:45.063Z,10.10
2018-12-22T10:09:12.460Z,10.20
2018-12-22T10:11:40.133Z,10.10
2018-12-22T10:14:07.521Z,10.00
2018-12-22T10:16:34.944Z,10.00
2018-12-22T10:19:02.597Z,10.00
2018-12-22T10:21:30.020Z,10.00
2018-12-22T10:23:57.439Z,10.00
2018-12-22T10:26:24.873Z,10.10
2018-12-22T10:28:52.298Z,10.10
2018-12-22T10:31:20.059Z,10.10
2018-12-22T10:33:47.442Z,10.10
2018-12-22T10:36:14.840Z,10.20
2018-12-22T10:38:42.272Z,10.20
2018-12-22T10:41:09.650Z,10.20
2018-12-22T10:43:37.123Z,10.20
2018-12-22T10:46:04.560Z,10.20
2018-12-22T10:48:31.965Z,10.20
2018-12-22T10:50:59.398Z,10.20
2018-12-22T10:53:26.850Z,10.30
2018-12-22T10:55:54.280Z,10.20
2018-12-22T10:58:21.765Z,10.20
2018-12-22T11:00:49.154Z,10.20
2018-12-22T11:03:16.549Z,10.20
2018-12-22T11:05:44.391Z,10.10
2018-12-22T11:08:11.793Z,10.10
2018-12-22T11:10:39.329Z,10.10
2018-12-22T11:13:06.770Z,10.10
2018-12-22T11:15:34.226Z,10.10
2018-12-22T11:18:01.656Z,10.10
2018-12-22T11:20:29.251Z,10.10
2018-12-22T11:22:56.793Z,10.10
2018-12-22T11:25:25.496Z,10.00
2018-12-22T11:27:53.045Z,10.10
2018-12-22T11:30:28.113Z,10.10
2018-12-22T11:32:55.557Z,10.00
2018-12-22T11:35:22.960Z,10.00
2018-12-22T11:37:50.385Z,10.10
2018-12-22T11:40:17.912Z,10.10
2018-12-22T11:42:47.907Z,10.10
2018-12-22T11:45:14.904Z,10.10
2018-12-22T11:47:52.288Z,10.10
2018-12-22T11:50:23.144Z,10.20
2018-12-22T11:52:50.542Z,10.20
2018-12-22T11:55:17.961Z,10.20
2018-12-22T11:57:45.388Z,10.20
2018-12-22T12:00:12.810Z,10.20
2018-12-22T12:02:40.285Z,10.10
2018-12-22T12:05:09.345Z,10.20
2018-12-22T12:07:36.977Z,10.20
2018-12-22T12:10:06.990Z,10.20
2018-12-22T12:12:34.437Z,10.20
2018-12-22T12:15:01.869Z,10.20
2018-12-22T12:17:51.422Z,10.20
2018-12-22T12:20:19.140Z,10.30
2018-12-22T12:22:46.621Z,10.20
2018-12-22T12:25:14.029Z,10.20
2018-12-22T12:27:41.709Z,10.30
2018-12-22T12:30:09.662Z,10.20
2018-12-22T12:32:37.021Z,10.20
2018-12-22T12:35:05.390Z,10.10
2018-12-22T12:37:32.836Z,10.10
2018-12-22T12:40:00.254Z,10.10
2018-12-22T12:42:27.664Z,10.10
2018-12-22T12:44:55.057Z,10.10
2018-12-22T12:47:22.477Z,10.10
2018-12-22T12:49:49.896Z,10.20
2018-12-22T12:52:17.296Z,10.20
2018-12-22T12:54:44.824Z,10.20
2018-12-22T12:57:12.272Z,10.20
2018-12-22T12:59:39.658Z,10.20
2018-12-22T13:02:07.821Z,10.10
2018-12-22T13:04:35.361Z,10.20
2018-12-22T13:07:02.895Z,10.10
2018-12-22T13:09:30.310Z,10.10
2018-12-22T13:12:03.916Z,10.10
2018-12-22T13:14:31.345Z,10.00
2018-12-22T13:16:58.768Z,10.00
2018-12-22T13:19:26.264Z,9.90
2018-12-22T13:21:53.977Z,9.90
2018-12-22T13:24:21.410Z,9.80
2018-12-22T13:26:48.876Z,9.80
2018-12-22T13:29:16.309Z,9.80
2018-12-22T13:31:44.391Z,9.70
2018-12-22T13:34:11.797Z,9.70
2018-12-22T13:36:39.227Z,9.70
2018-12-22T13:39:10.150Z,9.70
2018-12-22T13:41:37.585Z,9.60
2018-12-22T13:44:05.080Z,9.50
2018-12-22T13:46:32.673Z,9.60
2018-12-22T13:49:00.770Z,9.60
2018-12-22T13:51:28.319Z,9.50
2018-12-22T13:53:56.062Z,9.50
2018-12-22T13:56:23.526Z,9.50
2018-12-22T13:58:50.929Z,9.50
2018-12-22T14:01:20.537Z,9.50
2018-12-22T14:03:48.646Z,9.60
2018-12-22T14:06:22.597Z,9.50
2018-12-22T14:08:50.129Z,9.50
2018-12-22T14:11:17.585Z,9.50
2018-12-22T14:13:44.985Z,9.50
2018-12-22T14:16:24.415Z,9.50
2018-12-22T14:18:59.769Z,9.50
2018-12-22T14:21:27.837Z,9.40
2018-12-22T14:24:01.392Z,9.40
2018-12-22T14:26:28.783Z,9.40
2018-12-22T14:28:56.213Z,9.40
2018-12-22T14:31:23.740Z,9.40
2018-12-22T14:33:53.701Z,9.40
2018-12-22T14:36:21.094Z,9.40
2018-12-22T14:38:48.564Z,9.40
2018-12-22T14:41:15.992Z,9.40
2018-12-22T14:43:43.436Z,9.50
2018-12-22T14:46:11.095Z,9.50
2018-12-22T14:48:38.536Z,9.40
2018-12-22T14:51:06.053Z,9.50
2018-12-22T14:53:33.540Z,9.50
2018-12-22T14:56:01.189Z,9.40
2018-12-22T14:58:30.055Z,9.40
2018-12-22T15:00:57.495Z,9.40
2018-12-22T15:03:24.940Z,9.40
2018-12-22T15:05:52.349Z,9.30
2018-12-22T15:08:19.757Z,9.30
2018-12-22T15:10:47.190Z,9.30
2018-12-22T15:13:14.584Z,9.20
2018-12-22T15:15:41.986Z,9.20
2018-12-22T15:18:09.439Z,9.20
2018-12-22T15:20:37.048Z,9.20
2018-12-22T15:23:07.680Z,9.10
2018-12-22T15:25:35.097Z,9.10
2018-12-22T15:28:02.528Z,9.00
2018-12-22T15:30:29.947Z,9.00
2018-12-22T15:32:57.348Z,8.90
2018-12-22T15:35:24.755Z,8.60
2018-12-22T15:37:52.353Z,8.30
2018-12-22T15:40:19.964Z,8.10
2018-12-22T15:42:47.384Z,8.10
2018-12-22T15:45:14.819Z,8.00
2018-12-22T15:47:43.225Z,8.00
2018-12-22T15:50:13.184Z,7.90
2018-12-22T15:52:40.800Z,7.90
2018-12-22T15:55:08.549Z,7.90
2018-12-22T15:57:36.109Z,7.90
2018-12-22T16:00:05.233Z,7.90
2018-12-22T16:02:32.893Z,7.80
2018-12-22T16:05:00.351Z,7.70
2018-12-22T16:07:29.356Z,7.50
2018-12-22T16:09:56.945Z,7.60
2018-12-22T16:12:24.732Z,7.60
2018-12-22T16:14:52.563Z,7.60
2018-12-22T16:17:20.117Z,7.60
2018-12-22T16:19:47.681Z,7.70
2018-12-22T16:22:15.362Z,7.70
2018-12-22T16:24:42.780Z,7.60
2018-12-22T16:27:10.201Z,7.70
2018-12-22T16:29:40.481Z,7.70
2018-12-22T16:32:07.891Z,7.80
2018-12-22T16:34:35.428Z,7.70
2018-12-22T16:37:02.928Z,7.80
2018-12-22T16:39:30.430Z,7.80
2018-12-22T16:41:58.429Z,7.80
2018-12-22T16:44:25.852Z,7.80
2018-12-22T16:46:53.426Z,7.80
2018-12-22T16:49:20.845Z,7.80
2018-12-22T16:51:48.265Z,7.70
2018-12-22T16:54:15.655Z,7.70
2018-12-22T16:56:43.076Z,7.70
2018-12-22T16:59:11.166Z,7.70
2018-12-22T17:01:48.137Z,7.60
2018-12-22T17:04:15.873Z,7.70
2018-12-22T17:06:43.312Z,7.70
2018-12-22T17:09:11.107Z,7.70
2018-12-22T17:11:38.771Z,7.70
2018-12-22T17:14:06.233Z,7.70
2018-12-22T17:16:33.889Z,7.70
2018-12-22T17:19:01.498Z,7.50
2018-12-22T17:21:36.813Z,7.50
2018-12-22T17:24:14.804Z,7.40
2018-12-22T17:26:44.304Z,7.30
2018-12-22T17:29:11.905Z,7.00
2018-12-22T17:31:40.762Z,6.90
2018-12-22T17:34:08.314Z,6.80
2018-12-22T17:36:36.052Z,6.60
2018-12-22T17:39:06.192Z,6.60
2018-12-22T17:41:33.581Z,6.60
2018-12-22T17:44:01.032Z,6.60
2018-12-22T17:46:28.466Z,6.60
2018-12-22T17:48:55.842Z,6.60
2018-12-22T17:51:23.610Z,6.60
2018-12-22T17:53:50.995Z,6.60
2018-12-22T17:56:18.404Z,6.60
2018-12-22T17:58:46.703Z,6.60
2018-12-22T18:01:14.141Z,6.60
2018-12-22T18:03:41.554Z,6.70
2018-12-22T18:06:09.389Z,6.70
2018-12-22T18:08:36.826Z,6.60
2018-12-22T18:11:04.220Z,6.60
2018-12-22T18:13:31.731Z,6.60
2018-12-22T18:15:59.165Z,6.70
2018-12-22T18:18:26.636Z,6.70
2018-12-22T18:20:54.020Z,6.60
2018-12-22T18:23:21.455Z,6.70
2018-12-22T18:25:48.869Z,6.70
2018-12-22T18:28:16.280Z,6.60
2018-12-22T18:30:43.665Z,6.60
2018-12-22T18:33:11.700Z,6.60
2018-12-22T18:35:39.179Z,6.60
2018-12-22T18:38:06.552Z,6.60
2018-12-22T18:40:33.949Z,6.50
2018-12-22T18:43:01.378Z,6.50
2018-12-22T18:45:28.991Z,6.50
2018-12-22T18:47:56.460Z,6.50
2018-12-22T18:50:25.609Z,6.50
2018-12-22T18:52:53.344Z,6.50
2018-12-22T18:55:20.969Z,6.40
2018-12-22T18:57:51.697Z,6.50
2018-12-22T19:00:20.832Z,6.50
2018-12-22T19:02:48.330Z,6.60
2018-12-22T19:05:16.432Z,6.60
2018-12-22T19:07:43.949Z,6.50
2018-12-22T19:10:17.595Z,6.60
2018-12-22T19:12:45.083Z,6.60
2018-12-22T19:15:13.153Z,6.50
2018-12-22T19:17:40.676Z,6.60
2018-12-22T19:20:14.800Z,6.60
2018-12-22T19:22:42.388Z,6.60
2018-12-22T19:25:09.856Z,6.60
2018-12-22T19:27:37.709Z,6.60
2018-12-22T19:30:05.245Z,6.60
2018-12-22T19:32:32.725Z,6.60
2018-12-22T19:35:00.240Z,6.60
2018-12-22T19:37:27.645Z,6.60
2018-12-22T19:39:55.276Z,6.60
2018-12-22T19:42:22.713Z,6.60
2018-12-22T19:44:50.140Z,6.60
2018-12-22T19:47:17.811Z,6.50
2018-12-22T19:49:45.280Z,6.50
2018-12-22T19:52:12.746Z,6.60
2018-12-22T19:54:40.189Z,6.50
2018-12-22T19:57:07.622Z,6.50
2018-12-22T19:59:35.088Z,6.50
2018-12-22T20:02:02.932Z,6.60
2018-12-22T20:04:30.346Z,6.50
2018-12-22T20:06:58.013Z,6.60
2018-12-22T20:09:25.865Z,6.60
2018-12-22T20:11:53.528Z,6.60
2018-12-22T20:14:21.112Z,6.60
2018-12-22T20:16:48.619Z,6.60
2018-12-22T20:19:16.100Z,6.60
2018-12-22T20:21:43.690Z,6.60
2018-12-22T20:24:11.158Z,6.60
2018-12-22T20:26:38.770Z,6.60
2018-12-22T20:29:06.365Z,6.50
2018-12-22T20:31:33.946Z,6.50
2018-12-22T20:34:01.745Z,6.60
2018-12-22T20:36:29.207Z,6.50
2018-12-22T20:38:56.901Z,6.50
2018-12-22T20:41:24.384Z,6.50
2018-12-22T20:43:52.289Z,6.50
2018-12-22T20:46:19.806Z,6.50
2018-12-22T20:48:47.305Z,6.50
2018-12-22T20:51:14.992Z,6.50
2018-12-22T20:53:42.622Z,6.50
2018-12-22T20:56:10.207Z,6.50
2018-12-22T20:58:37.989Z,6.60
2018-12-22T21:01:05.787Z,6.60
2018-12-22T21:03:40.329Z,6.60
2018-12-22T21:06:15.060Z,6.50
2018-12-22T21:08:42.533Z,6.60
2018-12-22T21:11:10.257Z,6.60
2018-12-22T21:13:37.892Z,6.60
2018-12-22T21:16:05.513Z,6.60
2018-12-22T21:18:33.169Z,6.50
2018-12-22T21:21:00.698Z,6.50
2018-12-22T21:23:28.195Z,6.50
2018-12-22T21:25:55.912Z,6.50
2018-12-22T21:28:23.368Z,6.60
2018-12-22T21:30:50.885Z,6.60
2018-12-22T21:33:18.570Z,6.40
2018-12-22T21:35:53.286Z,6.60
2018-12-22T21:38:15.629Z,6.60
2018-12-22T21:40:43.100Z,6.60
2018-12-22T21:43:10.912Z,6.60
2018-12-22T21:45:38.708Z,6.60
2018-12-22T21:48:06.229Z,6.60
2018-12-22T21:50:33.718Z,6.60
2018-12-22T21:53:01.473Z,6.60
2018-12-22T21:55:29.099Z,6.60
2018-12-22T21:57:56.537Z,6.70
2018-12-22T22:00:23.990Z,6.60
2018-12-22T22:02:51.432Z,6.60
2018-12-22T22:05:18.841Z,6.60
2018-12-22T22:07:46.318Z,6.60
2018-12-22T22:10:14.316Z,6.70
2018-12-22T22:12:41.945Z,6.70
2018-12-22T22:15:09.458Z,6.80
2018-12-22T22:17:36.873Z,6.80
2018-12-22T22:20:05.285Z,6.70
2018-12-22T22:22:32.678Z,6.80
2018-12-22T22:25:00.092Z,6.70
2018-12-22T22:27:27.580Z,6.70
2018-12-22T22:29:55.036Z,6.70
2018-12-22T22:32:22.454Z,6.70
2018-12-22T22:34:49.880Z,6.70
2018-12-22T22:37:17.318Z,6.70
2018-12-22T22:39:44.708Z,6.70
2018-12-22T22:42:12.244Z,6.70
2018-12-22T22:44:39.638Z,6.70
2018-12-22T22:47:07.038Z,6.70
2018-12-22T22:49:34.533Z,6.60
2018-12-22T22:52:01.925Z,6.80
2018-12-22T22:54:29.441Z,6.70
2018-12-22T22:56:56.926Z,6.60
2018-12-22T22:59:24.852Z,6.60
2018-12-22T23:01:52.241Z,6.60
2018-12-22T23:04:19.888Z,6.70
2018-12-22T23:06:47.260Z,6.70
2018-12-22T23:09:14.677Z,6.70
2018-12-22T23:11:42.409Z,6.70
2018-12-22T23:14:09.785Z,6.70
2018-12-22T23:16:37.209Z,6.60
2018-12-22T23:19:04.628Z,6.70
2018-12-22T23:21:32.134Z,6.70
2018-12-22T23:23:59.509Z,6.60
2018-12-22T23:26:26.957Z,6.60
2018-12-22T23:28:54.509Z,6.60
2018-12-22T23:31:22.150Z,6.60
2018-12-22T23:33:49.832Z,6.60
2018-12-22T23:36:17.311Z,6.60
2018-12-22T23:38:44.722Z,6.60
2018-12-22T23:41:12.160Z,6.60
2018-12-22T23:43:39.822Z,6.60
2018-12-22T23:46:07.200Z,6.60
2018-12-22T23:48:34.701Z,6.50
2018-12-22T23:51:02.153Z,6.50
2018-12-22T23:53:29.765Z,6.50
2018-12-22T23:55:58.001Z,6.50
2018-12-22T23:58:25.675Z,6.40
